Tiempo atmosférico en la estación meteorológica de Guadalcanal, Sevilla (745 m.)



Fecha
DESCASC
Temp. máxima en grados centígrados (hora)
DESCASC
Temp. mínima en grados centígrados (hora)
DESCASC
Temp. media en grados centígrados
DESCASC
Racha de viento máxima en m/sg (hora)
DESCASC
Velocidad máxima media en intervalos de 10 minutos(hora)
DESCASC
Precipitaciones diarias en mm
DESCASC
Precipitaciones de 00:00 a 06:00 en mm
DESCASC
Precipitaciones de 06:00 a 12:00 en mm
DESCASC
Precipitaciones de 12:00 a 18:00 en mm
DESCASC
Precipitaciones de 18:00 a 24:00 en mm
DESCASC
13-06-2019 26.5 (18:30) 10.1 (07:40) 18.3 8.89 (19:20) 5.83 (02:20) 0 0 0 0 0
12-06-2019 27.7 (18:20) 14.1 (07:30) 20.9 8.89 (15:20) 5 (00:30) 0 0 0 0 0
11-06-2019 23.6 (15:50) 11.2 (07:10) 17.4 10 (17:10) 6.11 (08:40) 0 0 0 0 0
10-06-2019 25.2 (18:30) 11.8 (06:00) 18.5 10 (03:40) 6.11 (03:40) 0 0 0 0 0
09-06-2019 25.6 (16:30) 11.4 (00:00) 18.5 8.89 (17:30) 4.17 (18:10) 0 0 0 0 0
08-06-2019 28.1 (16:30) 12.7 (00:00) 20.4 9.17 (20:00) 5.83 (20:50) 0 0 0 0 0
07-06-2019 21.7 (17:50) 8.9 (00:00) 15.3 8.89 (16:20) 4.72 (10:00) 0 0 0 0 0
06-06-2019 23.3 (18:00) 9 (00:00) 16.1 11.94 (16:00) 6.39 (15:40) 0 0 0 0 0
05-06-2019 20.2 (19:40) 8.9 (00:00) 14.6 9.72 (12:40) 4.72 (12:50) 0 0 0 0 0
04-06-2019 28 (16:00) 14 (00:00) 21 9.17 (19:20) 5 (15:10) 0 0 0 0 0
03-06-2019 32.9 (17:10) 19.1 (00:00) 26 10.83 (20:40) 6.11 (20:50) 0 0 0 0 0
02-06-2019 33.9 (18:00) 16.1 (00:00) 25 8.06 (18:50) 4.44 (21:50) 0 0 0 0 0
01-06-2019 33.4 (16:30) 15.8 (00:00) 24.6 11.67 (15:40) 4.44 (19:00) 0 0 0 0 0
31-05-2019 33.2 (17:10) 15.1 (00:00) 24.2 9.44 (14:30) 4.44 (21:00) 0 0 0 0 0
30-05-2019 32.2 (17:30) 16.6 (00:00) 24.4 10.56 (18:50) 4.17 (20:30) 0 0 0 0 0
29-05-2019 29 (16:40) 15.7 (00:00) 22.3 9.44 (11:00) 5.56 (07:30) 0 0 0 0 0
28-05-2019 31.2 (17:00) 16.8 (00:00) 24 9.17 (07:30) 5.83 (07:20) 0 0 0 0 0
27-05-2019 31 (17:00) 16.8 (00:00) 23.9 8.61 (23:10) 4.72 (23:10) 0 0 0 0 0
26-05-2019 27.8 (17:00) 15.7 (00:00) 21.7 10.56 (18:30) 5 (17:50) 0 0 0 0 0
25-05-2019 25.7 (18:10) 13.9 (00:00) 19.8 9.44 (14:40) 5.28 (09:10) 0 0 0 0 0
24-05-2019 26.1 (18:20) 12.1 (00:00) 19.1 9.17 (01:00) 6.11 (01:20) 0 0 0 0 0
23-05-2019 28.9 (17:10) 16.6 (00:00) 22.8 8.33 (23:50) 4.72 (05:30) 0 0 0 0 0
22-05-2019 27.6 (17:20) 15.2 (00:00) 21.4 8.33 (15:00) 4.72 (05:00) 0 0 0 0 0
21-05-2019 25.1 (17:10) 11.8 (07:20) 18.5 16.39 (15:30) 5.28 (03:40) 0 0 0 0 0
20-05-2019 24.5 (18:00) 7.5 (07:40) 16 8.06 (13:40) 3.89 (02:00) 0 0 0 0 0
19-05-2019 21.4 (17:20) 7.6 (00:00) 14.5 9.72 (15:50) 5.83 (03:30) 0 0 0 0 0
18-05-2019 18.8 (17:30) 6.5 (00:00) 12.6 12.22 (08:40) 6.39 (09:30) 0 0 0 0 0
17-05-2019 18.2 (17:10) 6.6 (00:00) 12.4 11.11 (10:00) 6.11 (06:30) 0 0 0 0 0

Gráficas

Temp. máximas Temp. mínimas Temp. medias Precipitaciones Rachas de viento máximas Velocidades máximas media en intervalos de 10 minutos

Datos horarios

Fecha y hora oficial Temperatura (ºC) Velocidad del viento (km/h) Dirección del viento Racha (km/h) Dirección de racha Precipitación (mm) Presión (hPa) Tendencia (hPa) Humedad (%)
2019-06-15 23:00:00 20.1 10 Norte 18 Norte 0 -- -- 33
2019-06-15 22:00:00 20.9 8 Norte 13 Norte 0 -- -- 32
2019-06-15 21:00:00 22.5 7 Norte 14 Norte 0 -- -- 31
2019-06-15 20:00:00 24.2 9 Norte 18 Nordeste 0 -- -- 29
2019-06-15 19:00:00 24.6 7 Norte 19 Nordeste 0 -- -- 29
2019-06-15 18:00:00 24.8 6 Norte 22 Norte 0 -- -- 29
2019-06-15 17:00:00 24.7 6 Oeste 18 Norte 0 -- -- 30
2019-06-15 16:00:00 23.8 7 Sudeste 17 Nordeste 0 -- -- 32
2019-06-15 15:00:00 22.2 5 Este 16 Este 0 -- -- 35
2019-06-15 14:00:00 20.6 8 Norte 25 Noroeste 0 -- -- 38
2019-06-15 13:00:00 19.7 5 Norte 19 Nordeste 0 -- -- 42
2019-06-15 12:00:00 17.8 7 Norte 17 Norte 0 -- -- 47
2019-06-15 11:00:00 15.9 6 Nordeste 17 Nordeste 0 -- -- 54
2019-06-15 10:00:00 13.9 10 Nordeste 22 Nordeste 0 -- -- 64
2019-06-15 09:00:00 12.2 15 Nordeste 23 Norte 0 -- -- 71
2019-06-15 08:00:00 10.8 12 Nordeste 21 Norte 0 -- -- 76
2019-06-15 07:00:00 10.2 15 Norte 23 Norte 0 -- -- 78
2019-06-15 06:00:00 10.6 15 Norte 26 Norte 0 -- -- 75
2019-06-15 05:00:00 11.1 14 Norte 27 Norte 0 -- -- 71
2019-06-15 04:00:00 11.8 17 Norte 28 Norte 0 -- -- 68
2019-06-15 03:00:00 12.4 10 Norte 27 Norte 0 -- -- 65
2019-06-15 02:00:00 12.8 9 Norte 25 Norte 0 -- -- 63
2019-06-15 01:00:00 13.8 9 Norte 19 Norte 0 -- -- 57
2019-06-15 00:00:00 14.6 8 Noroeste 20 Norte 0 -- -- 54
2019-06-14 23:00:00 15.3 9 Norte 23 Norte 0 -- -- 49
2019-06-14 22:00:00 16.3 5 Norte 18 Noroeste 0 -- -- 45
2019-06-14 21:00:00 18 9 Noroeste 21 Oeste 0 -- -- 40
2019-06-14 20:00:00 19.9 8 Oeste 29 Noroeste 0 -- -- 37
2019-06-14 19:00:00 20.8 11 Oeste 27 Oeste 0 -- -- 36
2019-06-14 18:00:00 20.8 11 Oeste 30 Oeste 0 -- -- 35
2019-06-14 17:00:00 20.7 10 Oeste 33 Noroeste 0 -- -- 36
2019-06-14 16:00:00 20.4 14 Noroeste 31 Oeste 0 -- -- 37
2019-06-14 15:00:00 20.7 12 Oeste 30 Sudoeste 0 -- -- 37
2019-06-14 14:00:00 19.2 13 Oeste 30 Oeste 0 -- -- 41
2019-06-14 13:00:00 17.4 14 Sudoeste 30 Sudoeste 0 -- -- 47
2019-06-14 12:00:00 16.7 10 Sudoeste 26 Sudoeste 0 -- -- 50
2019-06-14 11:00:00 15.3 9 Sudoeste 18 Sudoeste 0 -- -- 53
2019-06-14 10:00:00 13.6 5 Sudoeste 13 Sudoeste 0 -- -- 58
2019-06-14 09:00:00 11.6 4 Oeste 10 Oeste 0 -- -- 64
2019-06-14 08:00:00 9 2 Oeste 4 Oeste 0 -- -- 72
2019-06-14 07:00:00 9.4 3 Norte 6 Nordeste 0 -- -- 70
2019-06-14 06:00:00 10.1 0 Calma 6 Este 0 -- -- 68
2019-06-14 05:00:00 11.7 3 Norte 17 Norte 0 -- -- 62
2019-06-14 04:00:00 12.2 11 Norte 16 Norte 0 -- -- 61
2019-06-14 03:00:00 13.2 9 Norte 18 Norte 0 -- -- 56
2019-06-14 02:00:00 14.5 4 Norte 12 Oeste 0 -- -- 45
2019-06-14 01:00:00 14.8 2 Noroeste 4 Norte 0 -- -- 42
2019-06-14 00:00:00 16.3 2 Norte 10 Noroeste 0 -- -- 39
2019-06-13 23:00:00 18.1 5 Noroeste 20 Oeste 0 -- -- 36
2019-06-13 22:00:00 20 8 Oeste 21 Oeste 0 -- -- 32
2019-06-13 21:00:00 22.5 10 Oeste 26 Sudoeste 0 -- -- 30
2019-06-13 20:00:00 25.7 13 Sudoeste 32 Sudoeste 0 -- -- 33
2019-06-13 19:00:00 25.4 12 Sudoeste 24 Sur 0 -- -- 36
2019-06-13 18:00:00 26.2 11 Sudoeste 28 Sudoeste 0 -- -- 34
2019-06-13 17:00:00 26 13 Sur 27 Sudoeste 0 -- -- 35
2019-06-13 16:00:00 25 13 Sudoeste 28 Sudoeste 0 -- -- 37
2019-06-13 15:00:00 24.3 13 Sudoeste 30 Sudoeste 0 -- -- 41
2019-06-13 14:00:00 23.7 14 Sudoeste 27 Sudoeste 0 -- -- 41
2019-06-13 13:00:00 22.7 9 Sudoeste 24 Sur 0 -- -- 41
2019-06-13 12:00:00 21.4 10 Sudoeste 19 Oeste 0 -- -- 39
2019-06-13 11:00:00 19.7 10 Sur 16 Sur 0 -- -- 38
2019-06-13 10:00:00 17.8 5 Sudoeste 9 Sudoeste 0 -- -- 39
2019-06-13 09:00:00 14.6 2 Nordeste 4 Nordeste 0 -- -- 53
2019-06-13 08:00:00 10.4 0 Calma 3 Norte 0 -- -- 63
2019-06-13 07:00:00 10.5 0 Calma 10 Norte 0 -- -- 60
2019-06-13 06:00:00 11.6 4 Nordeste 6 Nordeste 0 -- -- 55
2019-06-13 05:00:00 11.3 3 Nordeste 6 Norte 0 -- -- 57
2019-06-13 04:00:00 12.6 0 Calma 6 Sur 0 -- -- 53
2019-06-13 03:00:00 15.2 7 Noroeste 32 Norte 0 -- -- 46
2019-06-13 02:00:00 15.5 18 Norte 29 Norte 0 -- -- 46
2019-06-13 01:00:00 17.4 17 Norte 27 Norte 0 -- -- 29
2019-06-13 00:00:00 19 5 Noroeste 13 Sur 0 -- -- 49
2019-06-12 23:00:00 21 10 Sudoeste 26 Sudoeste 0 -- -- 45
2019-06-12 22:00:00 22.4 13 Sudoeste 23 Sudoeste 0 -- -- 40
2019-06-12 21:00:00 23.7 12 Sudoeste 24 Oeste 0 -- -- 36
2019-06-12 20:00:00 26.1 15 Sudoeste 27 Oeste 0 -- -- 31
2019-06-12 19:00:00 26.8 10 Sudoeste 32 Sur 0 -- -- 29
2019-06-12 18:00:00 26.9 14 Sudoeste 30 Sudoeste 0 -- -- 29
2019-06-12 17:00:00 26.5 10 Oeste 31 Sudoeste 0 -- -- 27
2019-06-12 16:00:00 26.2 10 Oeste 32 Oeste 0 -- -- 26
2019-06-12 15:00:00 25 6 Norte 23 Sudoeste 0 -- -- 25
2019-06-12 14:00:00 24.4 6 Noroeste 27 Sudoeste 0 -- -- 28
2019-06-12 13:00:00 23.7 5 Sur 19 Sudoeste 0 -- -- 30
2019-06-12 12:00:00 22.1 7 Sudoeste 19 Sur 0 -- -- 32
2019-06-12 11:00:00 20.4 6 Sudoeste 16 Sudoeste 0 -- -- 32
2019-06-12 10:00:00 18.9 5 Sur 10 Nordeste 0 -- -- 34
2019-06-12 09:00:00 16.7 6 Nordeste 17 Nordeste 0 -- -- 33
2019-06-12 08:00:00 14.2 12 Nordeste 19 Nordeste 0 -- -- 35
2019-06-12 07:00:00 14.4 15 Nordeste 22 Norte 0 -- -- 34
2019-06-12 06:00:00 14.5 14 Nordeste 22 Norte 0 -- -- 33
2019-06-12 05:00:00 14.9 13 Norte 21 Nordeste 0 -- -- 32
2019-06-12 04:00:00 14.7 13 Nordeste 19 Norte 0 -- -- 34
2019-06-12 03:00:00 14.8 12 Norte 22 Norte 0 -- -- 34
2019-06-12 02:00:00 15.8 12 Norte 26 Norte 0 -- -- 31
2019-06-12 01:00:00 16.7 15 Norte 31 Norte 0 -- -- 30
2019-06-12 00:00:00 17.6 16 Norte 30 Norte 0 -- -- 30
2019-06-11 23:00:00 18.4 9 Noroeste 24 Norte 0 -- -- 31
2019-06-11 22:00:00 19.5 5 Norte 17 Oeste 0 -- -- 30
2019-06-11 21:00:00 20.9 9 Norte 28 Norte 0 -- -- 26
2019-06-11 20:00:00 23.1 8 Noroeste 29 Noroeste 0 -- -- 26
2019-06-11 19:00:00 23.2 13 Norte 36 Nordeste 0 -- -- 24
2019-06-11 18:00:00 23.5 13 Noroeste 36 Norte 0 -- -- 30
2019-06-11 17:00:00 23.4 15 Norte 34 Norte 0 -- -- 31
2019-06-11 16:00:00 23.3 14 Norte 36 Norte 0 -- -- 33
2019-06-11 15:00:00 22.4 13 Norte 29 Noroeste 0 -- -- 37
2019-06-11 14:00:00 21.5 12 Norte 31 Norte 0 -- -- 40
2019-06-11 13:00:00 20 13 Norte 29 Nordeste 0 -- -- 44
2019-06-11 12:00:00 18.2 13 Norte 25 Nordeste 0 -- -- 49
2019-06-11 11:00:00 16.4 9 Norte 26 Norte 0 -- -- 53
2019-06-11 10:00:00 14.5 15 Nordeste 27 Norte 0 -- -- 56
2019-06-11 09:00:00 12.8 18 Norte 32 Norte 0 -- -- 58
2019-06-11 08:00:00 11.4 17 Norte 31 Norte 0 -- -- 61
2019-06-11 07:00:00 11.3 15 Norte 30 Norte 0 -- -- 58
2019-06-11 06:00:00 12.5 14 Norte 25 Norte 0 -- -- 53
2019-06-11 05:00:00 12.6 10 Norte 22 Norte 0 -- -- 51
2019-06-11 04:00:00 11.9 4 Sudeste 12 Noroeste 0 -- -- 51
2019-06-11 03:00:00 12.9 0 Calma 14 Oeste 0 -- -- 48
2019-06-11 02:00:00 14.6 5 Noroeste 15 Noroeste 0 -- -- 44
2019-06-11 01:00:00 16.3 4 Oeste 18 Noroeste 0 -- -- 41
2019-06-11 00:00:00 18.4 6 Oeste 22 Noroeste 0 -- -- 41
2019-06-10 23:00:00 20 8 Norte 16 Noroeste 0 -- -- 36
2019-06-10 22:00:00 20.7 6 Norte 18 Norte 0 -- -- 33
2019-06-10 21:00:00 22.4 7 Noroeste 20 Noroeste 0 -- -- 30
2019-06-10 20:00:00 24.3 10 Norte 24 Norte 0 -- -- 27
2019-06-10 19:00:00 25.1 9 Norte 23 Noroeste 0 -- -- 27
2019-06-10 18:00:00 24.8 9 Norte 25 Norte 0 -- -- 28
2019-06-10 17:00:00 24.2 15 Norte 26 Norte 0 -- -- 30
2019-06-10 16:00:00 23.6 12 Norte 27 Nordeste 0 -- -- 31
2019-06-10 15:00:00 23 13 Norte 24 Noroeste 0 -- -- 33
2019-06-10 14:00:00 21.9 8 Norte 24 Nordeste 0 -- -- 36
2019-06-10 13:00:00 20.8 10 Norte 24 Norte 0 -- -- 39
2019-06-10 12:00:00 19.4 9 Norte 23 Norte 0 -- -- 43
2019-06-10 11:00:00 17.7 7 Norte 20 Noroeste 0 -- -- 51
2019-06-10 10:00:00 15.5 10 Noroeste 18 Norte 0 -- -- 61
2019-06-10 09:00:00 13.3 2 Oeste 21 Norte 0 -- -- 69
2019-06-10 08:00:00 12.6 10 Norte 24 Norte 0 -- -- 70
2019-06-10 07:00:00 12 5 Norte 20 Noroeste 0 -- -- 69
2019-06-10 06:00:00 11.8 5 Noroeste 20 Norte 0 -- -- 72
2019-06-10 05:00:00 12.1 12 Norte 31 Norte 0 -- -- 72
2019-06-10 04:00:00 13 19 Norte 36 Norte 0 -- -- 69
2019-06-10 03:00:00 13.7 18 Norte 29 Norte 0 -- -- 64
2019-06-10 02:00:00 14.8 14 Norte 30 Norte 0 -- -- 58
2019-06-10 01:00:00 15.8 13 Norte 23 Norte 0 -- -- 53
2019-06-10 00:00:00 17.2 5 Norte 20 Noroeste 0 -- -- 47
2019-06-09 23:00:00 18.6 9 Noroeste 21 Noroeste 0 -- -- 45
2019-06-09 22:00:00 19.9 8 Noroeste 24 Noroeste 0 -- -- 39
2019-06-09 21:00:00 21.8 9 Noroeste 28 Oeste 0 -- -- 34
2019-06-09 20:00:00 24.2 10 Noroeste 26 Oeste 0 -- -- 29
2019-06-09 19:00:00 24.7 13 Noroeste 28 Sudoeste 0 -- -- 27
2019-06-09 18:00:00 25.5 10 Oeste 32 Oeste 0 -- -- 25
2019-06-09 17:00:00 25.2 9 Noroeste 27 Noroeste 0 -- -- 25
2019-06-09 16:00:00 25.1 14 Noroeste 28 Noroeste 0 -- -- 25
2019-06-09 15:00:00 24.6 12 Noroeste 24 Oeste 0 -- -- 24
2019-06-09 14:00:00 23.4 13 Oeste 26 Oeste 0 -- -- 34
2019-06-09 13:00:00 21.8 11 Oeste 22 Oeste 0 -- -- 37
2019-06-09 12:00:00 20 11 Sudoeste 26 Oeste 0 -- -- 45
2019-06-09 11:00:00 18.3 14 Sudoeste 23 Sudoeste 0 -- -- 52
2019-06-09 10:00:00 16.8 13 Sudoeste 22 Sudoeste 0 -- -- 54
2019-06-09 09:00:00 15.3 8 Sudoeste 12 Sudoeste 0 -- -- 50
2019-06-09 08:00:00 11.9 0 Calma 4 Nordeste 0 -- -- 62
2019-06-09 07:00:00 11.7 4 Norte 5 Nordeste 0 -- -- 60
2019-06-09 06:00:00 13.5 5 Norte 19 Norte 0 -- -- 55
2019-06-09 05:00:00 13.8 6 Nordeste 20 Noroeste 0 -- -- 53
2019-06-09 04:00:00 15 8 Norte 18 Noroeste 0 -- -- 51
2019-06-09 03:00:00 15.6 8 Norte 11 Norte 0 -- -- 49
2019-06-09 02:00:00 17.1 7 Sudoeste 18 Sudoeste 0 -- -- 42
2019-06-09 01:00:00 17.9 8 Sudoeste 18 Sudoeste 0 -- -- 42
2019-06-09 00:00:00 18.7 10 Sudoeste 19 Sudoeste 0 -- -- 37
2019-06-08 23:00:00 20.2 6 Sudoeste 18 Sudoeste 0 -- -- 34
2019-06-08 22:00:00 21.8 11 Sudoeste 31 Sudoeste 0 -- -- 31
2019-06-08 21:00:00 24.3 19 Sudoeste 33 Sudoeste 0 -- -- 28
2019-06-08 20:00:00 26.8 18 Sudoeste 33 Sudoeste 0 -- -- 22
2019-06-08 19:00:00 26.5 17 Sudoeste 30 Sudoeste 0 -- -- 22
2019-06-08 18:00:00 27.4 19 Sudoeste 31 Sur 0 -- -- 19
2019-06-08 17:00:00 27.1 12 Sudoeste 30 Sudoeste 0 -- -- 19
2019-06-08 16:00:00 27.3 15 Sudoeste 31 Sudoeste 0 -- -- 17
2019-06-08 15:00:00 26.1 7 Sudoeste 23 Oeste 0 -- -- 22
2019-06-08 14:00:00 25.3 6 Noroeste 23 Oeste 0 -- -- 23
2019-06-08 13:00:00 24.1 9 Sur 19 Sudoeste 0 -- -- 25
2019-06-08 12:00:00 22.6 8 Sur 18 Sudoeste 0 -- -- 28
2019-06-08 11:00:00 19.7 6 Nordeste 17 Norte 0 -- -- 32
2019-06-08 10:00:00 17.4 14 Nordeste 21 Nordeste 0 -- -- 37
2019-06-08 09:00:00 16 15 Norte 22 Norte 0 -- -- 40
2019-06-08 08:00:00 13.6 11 Norte 20 Norte 0 -- -- 46
2019-06-08 07:00:00 12.9 14 Norte 21 Norte 0 -- -- 47
2019-06-08 06:00:00 13.1 16 Norte 24 Nordeste 0 -- -- 47
2019-06-08 05:00:00 13.4 17 Norte 24 Norte 0 -- -- 47
2019-06-08 04:00:00 14 15 Norte 27 Norte 0 -- -- 46
2019-06-08 03:00:00 13.9 17 Norte 30 Norte 0 -- -- 46
2019-06-08 02:00:00 14.8 15 Norte 26 Norte 0 -- -- 43
2019-06-08 01:00:00 15.3 13 Norte 24 Norte 0 -- -- 40
2019-06-08 00:00:00 15.1 6 Norte 23 Norte 0 -- -- 38
2019-06-07 23:00:00 16.4 13 Norte 24 Noroeste 0 -- -- 36
2019-06-07 22:00:00 17.4 9 Norte 17 Norte 0 -- -- 35
2019-06-07 21:00:00 18.9 7 Norte 21 Norte 0 -- -- 32
2019-06-07 20:00:00 20.8 12 Norte 24 Norte 0 -- -- 29
2019-06-07 19:00:00 21.3 10 Norte 24 Norte 0 -- -- 29
2019-06-07 18:00:00 21.5 12 Norte 23 Norte 0 -- -- 29
2019-06-07 17:00:00 20.9 9 Nordeste 32 Norte 0 -- -- 31
2019-06-07 16:00:00 20.1 7 Nordeste 22 Norte 0 -- -- 30
2019-06-07 15:00:00 18.8 11 Nordeste 28 Norte 0 -- -- 35
2019-06-07 14:00:00 17.9 10 Norte 27 Norte 0 -- -- 38
2019-06-07 13:00:00 16.4 10 Norte 28 Norte 0 -- -- 40
2019-06-07 12:00:00 14.7 15 Norte 26 Norte 0 -- -- 49
2019-06-07 11:00:00 12.6 15 Norte 31 Norte 0 -- -- 63
2019-06-07 10:00:00 10.8 17 Norte 29 Norte 0 -- -- 70
2019-06-07 09:00:00 9.8 14 Norte 27 Nordeste 0 -- -- 81
2019-06-07 08:00:00 9.2 9 Norte 21 Norte 0 -- -- 89
2019-06-07 07:00:00 9.2 6 Norte 22 Noroeste 0 -- -- 88
2019-06-07 06:00:00 10.5 8 Norte 19 Norte 0 -- -- 84
2019-06-07 05:00:00 10.7 7 Norte 22 Noroeste 0 -- -- 83
2019-06-07 04:00:00 12.6 8 Noroeste 23 Oeste 0 -- -- 86
2019-06-07 03:00:00 14.6 11 Sudoeste 24 Sudoeste 0 -- -- 72
2019-06-07 02:00:00 15.1 13 Sudoeste 27 Sudoeste 0 -- -- 68
2019-06-07 01:00:00 15.7 15 Sudoeste 24 Sudoeste 0 -- -- 62
2019-06-07 00:00:00 16 8 Sudoeste 21 Sudoeste 0 -- -- 57
2019-06-06 23:00:00 16.9 9 Sudoeste 23 Sudoeste 0 -- -- 53
2019-06-06 22:00:00 18.6 12 Sudoeste 26 Sudoeste 0 -- -- 44
2019-06-06 21:00:00 20 13 Sudoeste 35 Sudoeste 0 -- -- 39
2019-06-06 20:00:00 21.9 15 Sudoeste 36 Sudoeste 0 -- -- 33
2019-06-06 19:00:00 22.7 21 Sudoeste 33 Oeste 0 -- -- 31
2019-06-06 18:00:00 23.3 17 Sudoeste 40 Sudoeste 0 -- -- 27
2019-06-06 17:00:00 23 17 Sudoeste 35 Sudoeste 0 -- -- 26
2019-06-06 16:00:00 22.3 22 Sudoeste 43 Sudoeste 0 -- -- 27
2019-06-06 15:00:00 21.7 18 Sudoeste 34 Sudoeste 0 -- -- 29
2019-06-06 14:00:00 20.6 16 Sudoeste 33 Sudoeste 0 -- -- 31
2019-06-06 13:00:00 19 16 Sudoeste 31 Sudoeste 0 -- -- 35
2019-06-06 12:00:00 17.9 15 Sudoeste 27 Sudoeste 0 -- -- 36
2019-06-06 11:00:00 15.8 10 Sudoeste 21 Sudoeste 0 -- -- 41
2019-06-06 10:00:00 12.9 0 Calma 13 Nordeste 0 -- -- 52
2019-06-06 09:00:00 11.2 8 Nordeste 16 Nordeste 0 -- -- 61
2019-06-06 08:00:00 9.5 13 Norte 21 Norte 0 -- -- 69
2019-06-06 07:00:00 9.1 13 Norte 23 Norte 0 -- -- 71
2019-06-06 06:00:00 9.3 15 Norte 26 Norte 0 -- -- 68
2019-06-06 05:00:00 9.9 18 Norte 27 Norte 0 -- -- 65
2019-06-06 04:00:00 10.3 17 Norte 32 Norte 0 -- -- 63
2019-06-06 03:00:00 11.1 19 Norte 31 Noroeste 0 -- -- 58
2019-06-06 02:00:00 12.1 15 Norte 27 Norte 0 -- -- 53
2019-06-06 01:00:00 13.8 10 Norte 20 Norte 0 -- -- 46
2019-06-06 00:00:00 14.9 10 Norte 19 Norte 0 -- -- 44
2019-06-05 23:00:00 15.4 8 Norte 17 Noroeste 0 -- -- 42
2019-06-05 22:00:00 16.2 6 Norte 16 Noroeste 0 -- -- 42
2019-06-05 21:00:00 18 5 Noroeste 17 Oeste 0 -- -- 37
2019-06-05 20:00:00 20 8 Noroeste 22 Norte 0 -- -- 32
2019-06-05 19:00:00 19.8 12 Noroeste 25 Noroeste 0 -- -- 34
2019-06-05 18:00:00 19.6 13 Noroeste 27 Norte 0 -- -- 34
2019-06-05 17:00:00 18.4 12 Norte 32 Noroeste 0 -- -- 37
2019-06-05 16:00:00 19 13 Noroeste 30 Norte 0 -- -- 35
2019-06-05 15:00:00 18.9 14 Norte 32 Norte 0 -- -- 37
2019-06-05 14:00:00 18 13 Noroeste 33 Norte 0 -- -- 40
2019-06-05 13:00:00 17.1 14 Noroeste 35 Norte 0 -- -- 43
2019-06-05 12:00:00 16 13 Noroeste 32 Norte 0 -- -- 45
2019-06-05 11:00:00 14.1 14 Noroeste 32 Noroeste 0 -- -- 53
2019-06-05 10:00:00 12.7 9 Noroeste 30 Noroeste 0 -- -- 64
2019-06-05 09:00:00 11.3 13 Noroeste 32 Noroeste 0 -- -- 68
2019-06-05 08:00:00 9.2 14 Noroeste 31 Noroeste 0 -- -- 80
2019-06-05 07:00:00 9.1 10 Noroeste 26 Oeste 0 -- -- 78
2019-06-05 06:00:00 9.6 9 Norte 29 Noroeste 0 -- -- 71
2019-06-05 05:00:00 10 12 Noroeste 23 Oeste 0 -- -- 70
2019-06-05 04:00:00 10.2 8 Noroeste 20 Noroeste 0 -- -- 67
2019-06-05 03:00:00 11.3 6 Noroeste 24 Norte 0 -- -- 61
2019-06-05 02:00:00 12.6 8 Norte 31 Norte 0 -- -- 58
2019-06-05 01:00:00 14.5 8 Noroeste 24 Noroeste 0 -- -- 70
2019-06-05 00:00:00 15.1 10 Noroeste 24 Noroeste 0 -- -- 73
2019-06-04 23:00:00 15.8 6 Noroeste 25 Noroeste 0 -- -- 69
2019-06-04 22:00:00 17.6 11 Noroeste 31 Noroeste 0 -- -- 69
2019-06-04 21:00:00 19.8 15 Norte 30 Norte 0 -- -- 61
2019-06-04 20:00:00 23.3 13 Noroeste 33 Noroeste 0 -- -- 46
2019-06-04 19:00:00 25.7 14 Noroeste 29 Noroeste 0 -- -- 42
2019-06-04 18:00:00 25.6 10 Noroeste 26 Sudoeste 0 -- -- 41
2019-06-04 17:00:00 26.6 11 Oeste 31 Sudoeste 0 -- -- 38
2019-06-04 16:00:00 28 15 Oeste 33 Oeste 0 -- -- 35
2019-06-04 15:00:00 27 15 Sudoeste 31 Sudoeste 0 -- -- 36
2019-06-04 14:00:00 25.6 11 Sudoeste 25 Oeste 0 -- -- 43
2019-06-04 13:00:00 23.8 13 Oeste 24 Sudoeste 0 -- -- 45
2019-06-04 12:00:00 22.4 12 Sudoeste 21 Sudoeste 0 -- -- 50
2019-06-04 11:00:00 21.1 6 Sudoeste 15 Sudoeste 0 -- -- 56
2019-06-04 10:00:00 18.9 6 Oeste 17 Oeste 0 -- -- 67
2019-06-04 09:00:00 17.1 6 Oeste 10 Oeste 0 -- -- 74
2019-06-04 08:00:00 15.3 0 Calma 6 Norte 0 -- -- 71
2019-06-04 07:00:00 14 4 Nordeste 5 Nordeste 0 -- -- 70
2019-06-04 06:00:00 14.6 2 Nordeste 5 Nordeste 0 -- -- 67
2019-06-04 05:00:00 15.5 0 Calma 6 Norte 0 -- -- 56
2019-06-04 04:00:00 16.7 0 Calma 10 Oeste 0 -- -- 52
2019-06-04 03:00:00 17.7 2 Norte 9 Noroeste 0 -- -- 49
2019-06-04 02:00:00 19.5 4 Oeste 18 Oeste 0 -- -- 42
2019-06-04 01:00:00 21.5 10 Oeste 16 Noroeste 0 -- -- 36
2019-06-04 00:00:00 21.4 5 Oeste 9 Oeste 0 -- -- 40
2019-06-03 23:00:00 23.9 4 Sudoeste 19 Sudoeste 0 -- -- 35
2019-06-03 22:00:00 26 12 Sudoeste 31 Sur 0 -- -- 33
2019-06-03 21:00:00 28 19 Sudoeste 39 Sudoeste 0 -- -- 29
2019-06-03 20:00:00 31 16 Sur 29 Sur 0 -- -- 21
2019-06-03 19:00:00 32.2 13 Sudoeste 29 Sur 0 -- -- 21
2019-06-03 18:00:00 32.7 14 Sudoeste 35 Sur 0 -- -- 20
2019-06-03 17:00:00 32.6 14 Sudoeste 28 Sur 0 -- -- 20
2019-06-03 16:00:00 32.4 12 Sudoeste 35 Sudoeste 0 -- -- 22
2019-06-03 15:00:00 32 8 Sudoeste 22 Sudoeste 0 -- -- 21
2019-06-03 14:00:00 31.8 9 Sudoeste 22 Sudoeste 0 -- -- 20
2019-06-03 13:00:00 30.4 8 Sur 14 Sudoeste 0 -- -- 21
2019-06-03 12:00:00 28.7 6 Norte 12 Norte 0 -- -- 19
2019-06-03 11:00:00 26.2 4 Nordeste 11 Norte 0 -- -- 24
2019-06-03 10:00:00 23.8 10 Norte 18 Nordeste 0 -- -- 29
2019-06-03 09:00:00 22 10 Nordeste 15 Norte 0 -- -- 35
2019-06-03 08:00:00 19.1 0 Calma 13 Norte 0 -- -- 40
2019-06-03 07:00:00 20.1 7 Norte 18 Norte 0 -- -- 34
2019-06-03 06:00:00 21 7 Noroeste 21 Noroeste 0 -- -- 32
2019-06-03 05:00:00 21.3 10 Norte 17 Norte 0 -- -- 27
2019-06-03 04:00:00 22.9 9 Norte 18 Nordeste 0 -- -- 29
2019-06-03 03:00:00 23.8 12 Norte 25 Norte 0 -- -- 29
2019-06-03 02:00:00 24.3 13 Norte 27 Noroeste 0 -- -- 29
2019-06-03 01:00:00 25.1 11 Norte 24 Norte 0 -- -- 29
2019-06-03 00:00:00 25.3 5 Noroeste 15 Noroeste 0 -- -- 30
2019-06-02 23:00:00 25.9 8 Sudoeste 19 Oeste 0 -- -- 26
2019-06-02 22:00:00 27.3 14 Sudoeste 26 Sudoeste 0 -- -- 25
2019-06-02 21:00:00 29 13 Sudoeste 24 Sur 0 -- -- 24
2019-06-02 20:00:00 31.7 16 Sudoeste 24 Sur 0 -- -- 22
2019-06-02 19:00:00 33 12 Sur 29 Sudoeste 0 -- -- 22
2019-06-02 18:00:00 33.9 12 Sudeste 24 Sur 0 -- -- 23
2019-06-02 17:00:00 33.4 10 Sudoeste 22 Sudoeste 0 -- -- 23
2019-06-02 16:00:00 32.9 8 Sur 21 Sudoeste 0 -- -- 23
2019-06-02 15:00:00 31.9 9 Sudoeste 22 Sudoeste 0 -- -- 24
2019-06-02 14:00:00 31 7 Sudeste 17 Sur 0 -- -- 25
2019-06-02 13:00:00 29.8 7 Sur 17 Sur 0 -- -- 26
2019-06-02 12:00:00 27.7 7 Sudoeste 14 Sudoeste 0 -- -- 27
2019-06-02 11:00:00 25.5 9 Sudoeste 15 Oeste 0 -- -- 31
2019-06-02 10:00:00 23.7 7 Sudoeste 11 Sudoeste 0 -- -- 35
2019-06-02 09:00:00 20.7 4 Sur 5 Sur 0 -- -- 41
2019-06-02 08:00:00 16.5 0 Calma 4 Norte 0 -- -- 50
2019-06-02 07:00:00 16.1 0 Calma 4 Oeste 0 -- -- 50
2019-06-02 06:00:00 16.7 0 Calma 6 Oeste 0 -- -- 49
2019-06-02 05:00:00 18.1 5 Oeste 13 Sudoeste 0 -- -- 44
2019-06-02 04:00:00 18.6 6 Sudoeste 14 Sudoeste 0 -- -- 44
2019-06-02 03:00:00 19.3 8 Sudoeste 21 Sur 0 -- -- 42
2019-06-02 02:00:00 20.2 7 Sudoeste 13 Sudoeste 0 -- -- 43
2019-06-02 01:00:00 21.4 4 Sudoeste 14 Sur 0 -- -- 39
2019-06-02 00:00:00 22.5 5 Sudoeste 9 Sudoeste 0 -- -- 34
2019-06-01 23:00:00 23.9 5 Sudoeste 12 Sudoeste 0 -- -- 32
2019-06-01 22:00:00 25.7 8 Sudoeste 18 Sudoeste 0 -- -- 30
2019-06-01 21:00:00 27.9 10 Sudoeste 21 Sudoeste 0 -- -- 28
2019-06-01 20:00:00 30.5 12 Sur 28 Sudoeste 0 -- -- 26
2019-06-01 19:00:00 31.7 16 Sudoeste 30 Oeste 0 -- -- 26
2019-06-01 18:00:00 33.3 9 Sur 21 Noroeste 0 -- -- 24
2019-06-01 17:00:00 32.8 6 Nordeste 21 Sudeste 0 -- -- 23
2019-06-01 16:00:00 32.7 10 Este 42 Sur 0 -- -- 24
2019-06-01 15:00:00 31.3 9 Este 24 Sudeste 0 -- -- 26
2019-06-01 14:00:00 30.8 11 Sur 25 Sudeste 0 -- -- 26
2019-06-01 13:00:00 29.1 9 Sudeste 22 Sur 0 -- -- 28
2019-06-01 12:00:00 27.3 9 Este 20 Este 0 -- -- 29
2019-06-01 11:00:00 25.1 12 Este 21 Este 0 -- -- 35
2019-06-01 10:00:00 22.8 4 Este 10 Nordeste 0 -- -- 41
2019-06-01 09:00:00 19.9 2 Sudoeste 8 Sudoeste 0 -- -- 45
2019-06-01 08:00:00 17 3 Sudoeste 10 Sudoeste 0 -- -- 52
2019-06-01 07:00:00 16.2 2 Oeste 13 Oeste 0 -- -- 53
2019-06-01 06:00:00 16.5 0 Calma 13 Sudoeste 0 -- -- 52
2019-06-01 05:00:00 17.4 5 Sudoeste 10 Sudoeste 0 -- -- 48
2019-06-01 04:00:00 18.3 6 Oeste 14 Oeste 0 -- -- 44
2019-06-01 03:00:00 18.7 7 Sudoeste 14 Sudoeste 0 -- -- 42
2019-06-01 02:00:00 19.9 5 Sudoeste 15 Sudoeste 0 -- -- 39
2019-06-01 01:00:00 20.6 6 Sudoeste 11 Sudoeste 0 -- -- 36
2019-06-01 00:00:00 21.2 6 Sudoeste 14 Sur 0 -- -- 36
2019-05-31 23:00:00 22.7 6 Sudoeste 13 Sudoeste 0 -- -- 34
2019-05-31 22:00:00 24.6 11 Sudoeste 24 Sudoeste 0 -- -- 32
2019-05-31 21:00:00 27.2 16 Sudoeste 23 Sur 0 -- -- 30
2019-05-31 20:00:00 30 10 Sudoeste 24 Sudoeste 0 -- -- 27
2019-05-31 19:00:00 31.2 13 Sur 27 Sur 0 -- -- 25
2019-05-31 18:00:00 32.9 5 Sudoeste 24 Este 0 -- -- 23
2019-05-31 17:00:00 32.8 10 Sudeste 22 Sudeste 0 -- -- 23
2019-05-31 16:00:00 32.1 6 Sudeste 25 Sudeste 0 -- -- 22
2019-05-31 15:00:00 30.5 14 Nordeste 34 Sudeste 0 -- -- 24
2019-05-31 14:00:00 30.2 11 Este 28 Este 0 -- -- 26
2019-05-31 13:00:00 28 13 Este 25 Sur 0 -- -- 26
2019-05-31 12:00:00 26.3 12 Este 23 Este 0 -- -- 30
2019-05-31 11:00:00 23.8 11 Este 22 Nordeste 0 -- -- 35
2019-05-31 10:00:00 20.9 13 Nordeste 23 Nordeste 0 -- -- 43
2019-05-31 09:00:00 19.1 10 Nordeste 19 Este 0 -- -- 47
2019-05-31 08:00:00 16.4 4 Este 12 Este 0 -- -- 50
2019-05-31 07:00:00 15.2 4 Este 6 Sudeste 0 -- -- 54
2019-05-31 06:00:00 15.6 3 Sudoeste 8 Sudoeste 0 -- -- 51
2019-05-31 05:00:00 15.4 3 Oeste 10 Sudoeste 0 -- -- 49
2019-05-31 04:00:00 16.8 6 Sudoeste 26 Sur 0 -- -- 45
2019-05-31 03:00:00 17.9 14 Sur 25 Sur 0 -- -- 41
2019-05-31 02:00:00 18.1 8 Sudoeste 20 Sudoeste 0 -- -- 46
2019-05-31 01:00:00 19.5 9 Sudoeste 22 Sur 0 -- -- 46
2019-05-31 00:00:00 20.3 4 Sur 11 Sudoeste 0 -- -- 49
2019-05-30 23:00:00 22.2 2 Sudoeste 10 Sudoeste 0 -- -- 44
2019-05-30 22:00:00 24.1 5 Sudoeste 17 Sur 0 -- -- 40
2019-05-30 21:00:00 26.1 13 Sudoeste 23 Sur 0 -- -- 37
2019-05-30 20:00:00 29.5 8 Sudoeste 24 Sudoeste 0 -- -- 30
2019-05-30 19:00:00 30.7 9 Sudoeste 38 Oeste 0 -- -- 29
2019-05-30 18:00:00 31.8 8 Nordeste 28 Este 0 -- -- 20
2019-05-30 17:00:00 30.9 12 Nordeste 28 Este 0 -- -- 21
2019-05-30 16:00:00 30.5 8 Este 24 Este 0 -- -- 24
2019-05-30 15:00:00 30 6 Sudeste 23 Este 0 -- -- 27
2019-05-30 14:00:00 27.7 9 Nordeste 26 Este 0 -- -- 29
2019-05-30 13:00:00 26.6 11 Este 23 Sudeste 0 -- -- 30
2019-05-30 12:00:00 25.1 9 Este 19 Este 0 -- -- 35
2019-05-30 11:00:00 22.7 10 Este 22 Nordeste 0 -- -- 39
2019-05-30 10:00:00 20.4 7 Este 17 Nordeste 0 -- -- 42
2019-05-30 09:00:00 18.1 8 Nordeste 15 Norte 0 -- -- 42
2019-05-30 08:00:00 16.9 11 Nordeste 16 Norte 0 -- -- 42
2019-05-30 07:00:00 16.6 12 Nordeste 15 Norte 0 -- -- 42
2019-05-30 06:00:00 17.3 8 Nordeste 11 Nordeste 0 -- -- 40
2019-05-30 05:00:00 18.1 9 Nordeste 15 Nordeste 0 -- -- 38
2019-05-30 04:00:00 18.9 4 Nordeste 13 Este 0 -- -- 37
2019-05-30 03:00:00 19.3 5 Nordeste 15 Nordeste 0 -- -- 35
2019-05-30 02:00:00 20.2 8 Nordeste 16 Nordeste 0 -- -- 32
2019-05-30 01:00:00 20.9 6 Nordeste 16 Nordeste 0 -- -- 31
2019-05-30 00:00:00 22.4 5 Nordeste 14 Este 0 -- -- 29
2019-05-29 23:00:00 22.9 4 Nordeste 11 Nordeste 0 -- -- 28
2019-05-29 22:00:00 24.5 5 Nordeste 19 Este 0 -- -- 26
2019-05-29 21:00:00 26.4 10 Nordeste 24 Norte 0 -- -- 24
2019-05-29 20:00:00 28.2 11 Nordeste 30 Este 0 -- -- 23
2019-05-29 19:00:00 28.8 11 Nordeste 32 Este 0 -- -- 23
2019-05-29 18:00:00 28.5 13 Nordeste 30 Este 0 -- -- 23
2019-05-29 17:00:00 28.8 13 Nordeste 31 Nordeste 0 -- -- 22
2019-05-29 16:00:00 28.8 15 Nordeste 28 Nordeste 0 -- -- 23
2019-05-29 15:00:00 28 14 Nordeste 29 Este 0 -- -- 24
2019-05-29 14:00:00 27 11 Nordeste 28 Nordeste 0 -- -- 26
2019-05-29 13:00:00 26.4 10 Nordeste 29 Nordeste 0 -- -- 27
2019-05-29 12:00:00 24.4 10 Este 33 Nordeste 0 -- -- 29
2019-05-29 11:00:00 22.2 18 Este 34 Este 0 -- -- 32
2019-05-29 10:00:00 20.2 19 Nordeste 33 Este 0 -- -- 35
2019-05-29 09:00:00 18 15 Nordeste 27 Nordeste 0 -- -- 39
2019-05-29 08:00:00 15.8 19 Nordeste 28 Norte 0 -- -- 42
2019-05-29 07:00:00 16.5 18 Nordeste 25 Nordeste 0 -- -- 40
2019-05-29 06:00:00 17.3 17 Nordeste 25 Nordeste 0 -- -- 38
2019-05-29 05:00:00 17.9 17 Nordeste 26 Nordeste 0 -- -- 36
2019-05-29 04:00:00 18.7 15 Nordeste 27 Nordeste 0 -- -- 34
2019-05-29 03:00:00 19.8 17 Nordeste 27 Norte 0 -- -- 32
2019-05-29 02:00:00 21.2 13 Norte 25 Norte 0 -- -- 31
2019-05-29 01:00:00 22.6 17 Norte 28 Norte 0 -- -- 28
2019-05-29 00:00:00 22.9 17 Norte 30 Norte 0 -- -- 26
2019-05-28 23:00:00 24 16 Norte 29 Norte 0 -- -- 25
2019-05-28 22:00:00 25.3 15 Norte 27 Norte 0 -- -- 25
2019-05-28 21:00:00 27.5 8 Norte 21 Norte 0 -- -- 31
2019-05-28 20:00:00 29.6 11 Norte 26 Nordeste 0 -- -- 26
2019-05-28 19:00:00 30.4 11 Nordeste 26 Norte 0 -- -- 25
2019-05-28 18:00:00 30.9 13 Norte 28 Nordeste 0 -- -- 26
2019-05-28 17:00:00 31.2 10 Noroeste 23 Norte 0 -- -- 27
2019-05-28 16:00:00 30.5 5 Nordeste 30 Nordeste 0 -- -- 29
2019-05-28 15:00:00 29.4 9 Noroeste 30 Nordeste 0 -- -- 31
2019-05-28 14:00:00 28.8 10 Nordeste 23 Nordeste 0 -- -- 32
2019-05-28 13:00:00 27.2 8 Nordeste 22 Norte 0 -- -- 35
2019-05-28 12:00:00 25.6 9 Norte 18 Norte 0 -- -- 40
2019-05-28 11:00:00 22.9 11 Nordeste 21 Norte 0 -- -- 48
2019-05-28 10:00:00 20.7 15 Nordeste 23 Norte 0 -- -- 53
2019-05-28 09:00:00 19.2 17 Norte 28 Norte 0 -- -- 60
2019-05-28 08:00:00 17.4 18 Norte 33 Norte 0 -- -- 68
2019-05-28 07:00:00 17.5 18 Norte 27 Norte 0 -- -- 68
2019-05-28 06:00:00 18.2 15 Norte 31 Norte 0 -- -- 65
2019-05-28 05:00:00 17.9 16 Norte 27 Norte 0 -- -- 69
2019-05-28 04:00:00 18.6 16 Norte 29 Noroeste 0 -- -- 67
2019-05-28 03:00:00 19.5 14 Norte 26 Noroeste 0 -- -- 62
2019-05-28 02:00:00 20 3 Noroeste 16 Norte 0 -- -- 57
2019-05-28 01:00:00 21.2 4 Oeste 24 Norte 0 -- -- 47
2019-05-28 00:00:00 23.3 7 Noroeste 31 Norte 0 -- -- 40
2019-05-27 23:00:00 23.9 17 Norte 29 Noroeste 0 -- -- 41
2019-05-27 22:00:00 25.1 8 Norte 19 Norte 0 -- -- 38
2019-05-27 21:00:00 27 10 Noroeste 21 Noroeste 0 -- -- 33
2019-05-27 20:00:00 29.2 11 Noroeste 23 Norte 0 -- -- 28
2019-05-27 19:00:00 30.7 12 Noroeste 29 Noroeste 0 -- -- 27
2019-05-27 18:00:00 30.6 10 Noroeste 29 Norte 0 -- -- 26
2019-05-27 17:00:00 31 12 Noroeste 29 Noroeste 0 -- -- 26
2019-05-27 16:00:00 30 10 Noroeste 26 Noroeste 0 -- -- 27
2019-05-27 15:00:00 29.7 12 Norte 29 Norte 0 -- -- 26
2019-05-27 14:00:00 29.7 5 Oeste 21 Sudoeste 0 -- -- 26
2019-05-27 13:00:00 28.2 5 Este 22 Noroeste 0 -- -- 28
2019-05-27 12:00:00 26.9 8 Nordeste 21 Norte 0 -- -- 29
2019-05-27 11:00:00 24.8 6 Norte 17 Noroeste 0 -- -- 34
2019-05-27 10:00:00 22.4 11 Norte 17 Norte 0 -- -- 39
2019-05-27 09:00:00 20 14 Norte 21 Norte 0 -- -- 43
2019-05-27 08:00:00 18.7 9 Nordeste 14 Norte 0 -- -- 46
2019-05-27 07:00:00 17 6 Nordeste 9 Nordeste 0 -- -- 48
2019-05-27 06:00:00 17.3 6 Nordeste 10 Nordeste 0 -- -- 48
2019-05-27 05:00:00 19.2 8 Nordeste 14 Norte 0 -- -- 44
2019-05-27 04:00:00 19.6 6 Nordeste 10 Norte 0 -- -- 44
2019-05-27 03:00:00 19.3 4 Nordeste 12 Norte 0 -- -- 45
2019-05-27 02:00:00 19.3 4 Norte 8 Nordeste 0 -- -- 44
2019-05-27 01:00:00 19.6 3 Norte 6 Nordeste 0 -- -- 44
2019-05-27 00:00:00 20.5 5 Nordeste 7 Nordeste 0 -- -- 43
2019-05-26 23:00:00 20.4 3 Nordeste 5 Nordeste 0 -- -- 43
2019-05-26 22:00:00 23.4 4 Norte 11 Nordeste 0 -- -- 35
2019-05-26 21:00:00 25.4 6 Norte 23 Norte 0 -- -- 32
2019-05-26 20:00:00 27 9 Norte 28 Nordeste 0 -- -- 30
2019-05-26 19:00:00 27.3 15 Norte 38 Norte 0 -- -- 30
2019-05-26 18:00:00 27.5 15 Nordeste 35 Nordeste 0 -- -- 28
2019-05-26 17:00:00 27.8 14 Norte 31 Nordeste 0 -- -- 27
2019-05-26 16:00:00 27.1 16 Norte 33 Nordeste 0 -- -- 27
2019-05-26 15:00:00 26.5 14 Norte 28 Norte 0 -- -- 28
2019-05-26 14:00:00 25.6 13 Nordeste 30 Nordeste 0 -- -- 32
2019-05-26 13:00:00 24.4 9 Nordeste 33 Nordeste 0 -- -- 34
2019-05-26 12:00:00 23.2 10 Nordeste 26 Nordeste 0 -- -- 35
2019-05-26 11:00:00 21.8 7 Nordeste 27 Nordeste 0 -- -- 38
2019-05-26 10:00:00 19.4 10 Nordeste 18 Nordeste 0 -- -- 43
2019-05-26 09:00:00 17.6 9 Nordeste 16 Nordeste 0 -- -- 45
2019-05-26 08:00:00 15.8 6 Nordeste 12 Norte 0 -- -- 48
2019-05-26 07:00:00 15.8 9 Nordeste 13 Nordeste 0 -- -- 47
2019-05-26 06:00:00 16.1 8 Nordeste 12 Nordeste 0 -- -- 45
2019-05-26 05:00:00 16.9 7 Nordeste 14 Nordeste 0 -- -- 42
2019-05-26 04:00:00 17.6 8 Norte 15 Norte 0 -- -- 40
2019-05-26 03:00:00 17.4 7 Nordeste 10 Nordeste 0 -- -- 42
2019-05-26 02:00:00 17 5 Nordeste 8 Nordeste 0 -- -- 43
2019-05-26 01:00:00 17 4 Nordeste 5 Norte 0 -- -- 43
2019-05-26 00:00:00 18.4 2 Nordeste 11 Nordeste 0 -- -- 39
2019-05-25 23:00:00 19.9 4 Norte 12 Norte 0 -- -- 34
2019-05-25 22:00:00 21 3 Norte 18 Nordeste 0 -- -- 33
2019-05-25 21:00:00 22.9 9 Nordeste 27 Norte 0 -- -- 30
2019-05-25 20:00:00 24.8 10 Nordeste 27 Norte 0 -- -- 29
2019-05-25 19:00:00 25.6 9 Nordeste 27 Norte 0 -- -- 28
2019-05-25 18:00:00 25.6 10 Nordeste 30 Nordeste 0 -- -- 28
2019-05-25 17:00:00 25.1 12 Nordeste 27 Norte 0 -- -- 30
2019-05-25 16:00:00 24.9 9 Este 28 Nordeste 0 -- -- 31
2019-05-25 15:00:00 23.3 10 Nordeste 34 Norte 0 -- -- 34
2019-05-25 14:00:00 22.3 15 Nordeste 30 Nordeste 0 -- -- 36
2019-05-25 13:00:00 21.4 12 Nordeste 30 Nordeste 0 -- -- 39
2019-05-25 12:00:00 20.1 14 Nordeste 28 Nordeste 0 -- -- 42
2019-05-25 11:00:00 19 12 Nordeste 26 Este 0 -- -- 46
2019-05-25 10:00:00 16.8 14 Nordeste 31 Nordeste 0 -- -- 60
2019-05-25 09:00:00 15.1 17 Nordeste 30 Nordeste 0 -- -- 68
2019-05-25 08:00:00 13.9 13 Nordeste 24 Norte 0 -- -- 74
2019-05-25 07:00:00 14.5 16 Nordeste 24 Nordeste 0 -- -- 66
2019-05-25 06:00:00 15 13 Nordeste 20 Nordeste 0 -- -- 60
2019-05-25 05:00:00 15.8 12 Nordeste 20 Norte 0 -- -- 52
2019-05-25 04:00:00 16.6 12 Nordeste 20 Nordeste 0 -- -- 47
2019-05-25 03:00:00 17.1 10 Norte 17 Norte 0 -- -- 45
2019-05-25 02:00:00 18.3 10 Norte 24 Norte 0 -- -- 42
2019-05-25 01:00:00 19.5 11 Norte 24 Noroeste 0 -- -- 38
2019-05-25 00:00:00 20.1 15 Noroeste 28 Norte 0 -- -- 39
2019-05-24 23:00:00 20.9 6 Norte 14 Norte 0 -- -- 36
2019-05-24 22:00:00 21.7 5 Norte 15 Norte 0 -- -- 37
2019-05-24 21:00:00 23.3 9 Nordeste 24 Nordeste 0 -- -- 37
2019-05-24 20:00:00 25 11 Norte 25 Norte 0 -- -- 35
2019-05-24 19:00:00 25.9 10 Nordeste 28 Norte 0 -- -- 31
2019-05-24 18:00:00 25.9 15 Nordeste 30 Norte 0 -- -- 31
2019-05-24 17:00:00 25.3 13 Norte 30 Norte 0 -- -- 32
2019-05-24 16:00:00 24.6 12 Norte 30 Norte 0 -- -- 33
2019-05-24 15:00:00 23.5 14 Norte 30 Norte 0 -- -- 35
2019-05-24 14:00:00 22.5 13 Norte 28 Norte 0 -- -- 38
2019-05-24 13:00:00 21.1 14 Norte 26 Norte 0 -- -- 43
2019-05-24 12:00:00 19.7 12 Norte 27 Norte 0 -- -- 49
2019-05-24 11:00:00 17.3 18 Norte 29 Norte 0 -- -- 56
2019-05-24 10:00:00 15.4 17 Norte 31 Norte 0 -- -- 64
2019-05-24 09:00:00 13.4 9 Noroeste 22 Noroeste 0 -- -- 71
2019-05-24 08:00:00 12.1 12 Norte 23 Noroeste 0 -- -- 75
2019-05-24 07:00:00 12.5 9 Norte 24 Norte 0 -- -- 76
2019-05-24 06:00:00 12.7 7 Norte 19 Noroeste 0 -- -- 84
2019-05-24 05:00:00 13.3 4 Norte 25 Nordeste 0 -- -- 83
2019-05-24 04:00:00 13.9 7 Norte 16 Norte 0 -- -- 72
2019-05-24 03:00:00 14.3 2 Nordeste 24 Nordeste 0 -- -- 77
2019-05-24 02:00:00 15.5 10 Norte 32 Norte 0 -- -- 74
2019-05-24 01:00:00 16.8 22 Norte 33 Nordeste 0 -- -- 67
2019-05-24 00:00:00 18.6 16 Norte 30 Norte 0 -- -- 53
2019-05-23 23:00:00 19.4 12 Norte 24 Norte 0 -- -- 42
2019-05-23 22:00:00 20.9 8 Norte 23 Norte 0 -- -- 38
2019-05-23 21:00:00 23.3 9 Noroeste 23 Oeste 0 -- -- 32
2019-05-23 20:00:00 25.2 13 Oeste 30 Oeste 0 -- -- 29
2019-05-23 19:00:00 26.5 10 Noroeste 26 Oeste 0 -- -- 32
2019-05-23 18:00:00 28.2 6 Sudoeste 27 Noroeste 0 -- -- 30
2019-05-23 17:00:00 28.7 8 Oeste 28 Sudoeste 0 -- -- 30
2019-05-23 16:00:00 28.4 11 Sur 24 Sudoeste 0 -- -- 31
2019-05-23 15:00:00 27.8 9 Sur 23 Sudoeste 0 -- -- 32
2019-05-23 14:00:00 26.6 12 Sur 29 Sudoeste 0 -- -- 34
2019-05-23 13:00:00 25.5 8 Sur 21 Oeste 0 -- -- 36
2019-05-23 12:00:00 24.4 7 Sudoeste 16 Sudoeste 0 -- -- 40
2019-05-23 11:00:00 22.3 4 Sudeste 14 Nordeste 0 -- -- 45
2019-05-23 10:00:00 20.7 9 Nordeste 15 Nordeste 0 -- -- 46
2019-05-23 09:00:00 18.7 10 Nordeste 17 Norte 0 -- -- 54
2019-05-23 08:00:00 17 10 Norte 20 Norte 0 -- -- 63
2019-05-23 07:00:00 16.8 14 Norte 19 Norte 0 -- -- 68
2019-05-23 06:00:00 16.6 8 Norte 24 Norte 0 -- -- 69
2019-05-23 05:00:00 17.2 14 Norte 25 Norte 0 -- -- 68
2019-05-23 04:00:00 17.6 15 Norte 24 Norte 0 -- -- 67
2019-05-23 03:00:00 18.4 7 Noroeste 19 Norte 0 -- -- 56
2019-05-23 02:00:00 19 9 Oeste 27 Oeste 0 -- -- 45
2019-05-23 01:00:00 19.1 4 Sudoeste 12 Oeste 0 -- -- 48
2019-05-23 00:00:00 19.8 6 Oeste 13 Sudoeste 0 -- -- 48
2019-05-22 23:00:00 21 9 Sudoeste 20 Sudoeste 0 -- -- 42
2019-05-22 22:00:00 22.1 6 Oeste 15 Sudoeste 0 -- -- 40
2019-05-22 21:00:00 24.1 7 Sudoeste 18 Sudoeste 0 -- -- 35
2019-05-22 20:00:00 26.5 11 Sudoeste 21 Oeste 0 -- -- 31
2019-05-22 19:00:00 27.1 11 Oeste 22 Noroeste 0 -- -- 30
2019-05-22 18:00:00 27.3 8 Oeste 22 Sudoeste 0 -- -- 30
2019-05-22 17:00:00 27.3 9 Oeste 28 Sudoeste 0 -- -- 31
2019-05-22 16:00:00 26.4 15 Sudoeste 25 Oeste 0 -- -- 34
2019-05-22 15:00:00 25.2 14 Sudoeste 30 Oeste 0 -- -- 36
2019-05-22 14:00:00 25.7 6 Sur 19 Sudoeste 0 -- -- 33
2019-05-22 13:00:00 23.8 11 Sudoeste 22 Sur 0 -- -- 39
2019-05-22 12:00:00 22.6 8 Sur 21 Sudoeste 0 -- -- 44
2019-05-22 11:00:00 20.9 6 Sudoeste 15 Sudeste 0 -- -- 54
2019-05-22 10:00:00 19 5 Sudoeste 15 Sudeste 0 -- -- 60
2019-05-22 09:00:00 17.3 4 Nordeste 16 Nordeste 0 -- -- 63
2019-05-22 08:00:00 15.5 12 Nordeste 17 Norte 0 -- -- 68
2019-05-22 07:00:00 15.3 13 Nordeste 19 Nordeste 0 -- -- 69
2019-05-22 06:00:00 15.5 13 Norte 24 Norte 0 -- -- 68
2019-05-22 05:00:00 15.7 17 Norte 26 Norte 0 -- -- 67
2019-05-22 04:00:00 15.6 8 Norte 21 Norte 0 -- -- 63
2019-05-22 03:00:00 16.6 10 Norte 21 Norte 0 -- -- 60
2019-05-22 02:00:00 17.7 9 Norte 23 Norte 0 -- -- 56
2019-05-22 01:00:00 18.1 11 Noroeste 18 Norte 0 -- -- 53
2019-05-22 00:00:00 16.5 6 Norte 10 Noroeste 0 -- -- 53
2019-05-21 23:00:00 18.7 5 Noroeste 12 Norte 0 -- -- 46
2019-05-21 22:00:00 20.3 3 Sudeste 13 Sudeste 0 -- -- 44
2019-05-21 21:00:00 21 8 Norte 15 Norte 0 -- -- 39
2019-05-21 20:00:00 22.9 7 Noroeste 15 Noroeste 0 -- -- 35
2019-05-21 19:00:00 22.3 2 Norte 19 Oeste 0 -- -- 34
2019-05-21 18:00:00 24.7 9 Noroeste 23 Oeste 0 -- -- 31
2019-05-21 17:00:00 24.9 5 Oeste 18 Oeste 0 -- -- 32
2019-05-21 16:00:00 23.3 5 Noroeste 59 Sudoeste 0 -- -- 35
2019-05-21 15:00:00 22.2 5 Este 19 Nordeste 0 -- -- 36
2019-05-21 14:00:00 21.4 8 Norte 17 Norte 0 -- -- 39
2019-05-21 13:00:00 20.6 7 Nordeste 18 Norte 0 -- -- 42
2019-05-21 12:00:00 19.1 8 Nordeste 20 Norte 0 -- -- 46
2019-05-21 11:00:00 17.6 6 Nordeste 15 Norte 0 -- -- 51
2019-05-21 10:00:00 15.9 6 Norte 16 Nordeste 0 -- -- 58
2019-05-21 09:00:00 -- -- -- -- -- -- -- -- --
2019-05-21 08:00:00 -- -- -- -- -- -- -- -- --
2019-05-21 07:00:00 -- -- -- -- -- -- -- -- --
2019-05-21 06:00:00 -- -- -- -- -- -- -- -- --
2019-05-21 05:00:00 -- -- -- -- -- -- -- -- --
2019-05-21 04:00:00 -- -- -- -- -- -- -- -- --
2019-05-21 03:00:00 -- -- -- -- -- -- -- -- --
2019-05-21 02:00:00 14.4 16 Norte 28 Noroeste 0 -- -- 57
2019-05-21 01:00:00 15.8 9 Norte 26 Noroeste 0 -- -- 49
2019-05-21 00:00:00 16.7 12 Norte 26 Noroeste 0 -- -- 43
2019-05-20 23:00:00 17.9 9 Norte 19 Norte 0 -- -- 40
2019-05-20 22:00:00 18.8 6 Noroeste 17 Noroeste 0 -- -- 36
2019-05-20 21:00:00 20.5 6 Noroeste 21 Oeste 0 -- -- 30
2019-05-20 20:00:00 22 9 Noroeste 23 Oeste 0 -- -- 29
2019-05-20 19:00:00 23.1 9 Noroeste 22 Oeste 0 -- -- 27
2019-05-20 18:00:00 24.5 12 Oeste 27 Oeste 0 -- -- 23
2019-05-20 17:00:00 23.9 10 Noroeste 25 Oeste 0 -- -- 23
2019-05-20 16:00:00 23.3 13 Oeste 28 Sudoeste 0 -- -- 23
2019-05-20 15:00:00 22.4 10 Oeste 23 Sudoeste 0 -- -- 26
2019-05-20 14:00:00 21.4 8 Sur 29 Sudoeste 0 -- -- 28
2019-05-20 13:00:00 19.7 6 Sur 18 Sudoeste 0 -- -- 34
2019-05-20 12:00:00 17.8 9 Sudoeste 16 Oeste 0 -- -- 38
2019-05-20 11:00:00 15.7 7 Sudoeste 16 Sudoeste 0 -- -- 46
2019-05-20 10:00:00 13.5 5 Sudoeste 10 Sudoeste 0 -- -- 53
2019-05-20 09:00:00 10.9 0 Calma 4 Sur 0 -- -- 60
2019-05-20 08:00:00 7.6 2 Sudeste 6 Norte 0 -- -- 71
2019-05-20 07:00:00 7.9 2 Este 4 Este 0 -- -- 69
2019-05-20 06:00:00 8.5 0 Calma 6 Norte 0 -- -- 67
2019-05-20 05:00:00 9 2 Este 8 Norte 0 -- -- 68
2019-05-20 04:00:00 -- -- -- -- -- -- -- -- --
2019-05-20 03:00:00 -- -- -- -- -- -- -- -- --
2019-05-20 02:00:00 -- -- -- -- -- -- -- -- --
2019-05-20 01:00:00 -- -- -- -- -- -- -- -- --
2019-05-20 00:00:00 -- -- -- -- -- -- -- -- --
2019-05-19 23:00:00 -- -- -- -- -- -- -- -- --
2019-05-19 22:00:00 -- -- -- -- -- -- -- -- --
2019-05-19 21:00:00 -- -- -- -- -- -- -- -- --
2019-05-19 20:00:00 -- -- -- -- -- -- -- -- --
2019-05-19 19:00:00 -- -- -- -- -- -- -- -- --
2019-05-19 18:00:00 -- -- -- -- -- -- -- -- --
2019-05-19 17:00:00 -- -- -- -- -- -- -- -- --
2019-05-19 16:00:00 -- -- -- -- -- -- -- -- --
2019-05-19 15:00:00 -- -- -- -- -- -- -- -- --
2019-05-19 14:00:00 -- -- -- -- -- -- -- -- --
2019-05-19 13:00:00 -- -- -- -- -- -- -- -- --
2019-05-19 12:00:00 -- -- -- -- -- -- -- -- --
2019-05-19 11:00:00 -- -- -- -- -- -- -- -- --
2019-05-19 10:00:00 11.7 9 Noroeste 19 Norte 0 -- -- 62
2019-05-19 09:00:00 9.4 7 Oeste 15 Norte 0 -- -- 72
2019-05-19 08:00:00 7.6 0 Calma 14 Norte 0 -- -- 77
2019-05-19 07:00:00 8.2 8 Noroeste 20 Noroeste 0 -- -- 76
2019-05-19 06:00:00 8.5 10 Norte 24 Norte 0 -- -- 74
2019-05-19 05:00:00 8.9 14 Norte 27 Noroeste 0 -- -- 73
2019-05-19 04:00:00 9.4 16 Norte 35 Norte 0 -- -- 70
2019-05-19 03:00:00 9.8 16 Norte 32 Noroeste 0 -- -- 68
2019-05-19 02:00:00 10.3 13 Norte 31 Norte 0 -- -- 64
2019-05-19 01:00:00 10.9 13 Norte 28 Noroeste 0 -- -- 59
2019-05-19 00:00:00 11.7 10 Noroeste 27 Oeste 0 -- -- 56
2019-05-18 23:00:00 12.6 10 Noroeste 24 Noroeste 0 -- -- 51
2019-05-18 22:00:00 13.4 10 Noroeste 26 Norte 0 -- -- 49
2019-05-18 21:00:00 14.9 8 Noroeste 25 Noroeste 0 -- -- 41
2019-05-18 20:00:00 16.3 11 Noroeste 32 Norte 0 -- -- 39
2019-05-18 19:00:00 18 15 Noroeste 34 Noroeste 0 -- -- 34
2019-05-18 18:00:00 18.6 13 Noroeste 32 Norte 0 -- -- 35
2019-05-18 17:00:00 18.6 14 Noroeste 35 Noroeste 0 -- -- 34
2019-05-18 16:00:00 17.8 15 Noroeste 43 Oeste 0 -- -- 38
2019-05-18 15:00:00 16.6 20 Noroeste 38 Noroeste 0 -- -- 36
2019-05-18 14:00:00 15.8 15 Noroeste 33 Noroeste 0 -- -- 38
2019-05-18 13:00:00 14.4 13 Norte 35 Oeste 0 -- -- 43
2019-05-18 12:00:00 13.2 16 Norte 39 Norte 0 -- -- 47
2019-05-18 11:00:00 11.6 21 Norte 39 Norte 0 -- -- 54
2019-05-18 10:00:00 9.8 18 Norte 40 Norte 0 -- -- 63
2019-05-18 09:00:00 8 21 Norte 44 Norte 0 -- -- 69
2019-05-18 08:00:00 7 19 Norte 41 Norte 0 -- -- 75
2019-05-18 07:00:00 6.8 14 Norte 35 Norte 0 -- -- 76
2019-05-18 06:00:00 7.4 21 Norte 42 Noroeste 0 -- -- 74
2019-05-18 05:00:00 8 8 Norte 31 Norte 0 -- -- 72
2019-05-18 04:00:00 8.5 13 Norte 33 Norte 0 -- -- 69
2019-05-18 03:00:00 8.9 17 Norte 35 Norte 0 -- -- 69
2019-05-18 02:00:00 9.6 19 Norte 36 Norte 0 -- -- 64
2019-05-18 01:00:00 10.4 17 Norte 36 Norte 0 -- -- 61
2019-05-18 00:00:00 11.5 10 Noroeste 24 Norte 0 -- -- 59
2019-05-17 23:00:00 12.7 8 Noroeste 23 Noroeste 0 -- -- 57
2019-05-17 22:00:00 13.9 10 Noroeste 23 Noroeste 0 -- -- 50
2019-05-17 21:00:00 15.1 8 Norte 30 Oeste 0 -- -- 46
2019-05-17 20:00:00 17.4 11 Noroeste 31 Oeste 0 -- -- 40
2019-05-17 19:00:00 17.8 12 Noroeste 31 Oeste 0 -- -- 36
2019-05-17 18:00:00 18.1 13 Noroeste 36 Norte 0 -- -- 36
2019-05-17 17:00:00 17.8 13 Noroeste 30 Oeste 0 -- -- 37
2019-05-17 16:00:00 15.8 17 Noroeste 33 Noroeste 0 -- -- 41
2019-05-17 15:00:00 14.8 15 Noroeste 40 Norte 0 -- -- 42
2019-05-17 14:00:00 14.9 15 Noroeste 36 Noroeste 0 -- -- 44
2019-05-17 13:00:00 13 15 Norte 35 Norte 0 -- -- 51
2019-05-17 12:00:00 12.2 17 Norte 35 Norte 0 -- -- 53
2019-05-17 11:00:00 11 18 Norte 35 Norte 0 -- -- 58
2019-05-17 10:00:00 9.3 20 Norte 40 Norte 0 -- -- 68
2019-05-17 09:00:00 8 12 Norte 31 Norte 0 -- -- 75
2019-05-17 08:00:00 6.8 17 Norte 37 Noroeste 0 -- -- 83
2019-05-17 07:00:00 6.6 19 Norte 40 Norte 0 -- -- 82
2019-05-17 06:00:00 7.2 14 Norte 32 Norte 0 -- -- 76
2019-05-17 05:00:00 7.4 13 Noroeste 34 Norte 0 -- -- 74
2019-05-17 04:00:00 7.8 12 Noroeste 37 Noroeste 0 -- -- 76
2019-05-17 03:00:00 8.7 11 Noroeste 28 Oeste 0 -- -- 75
2019-05-17 02:00:00 9.7 6 Noroeste 30 Norte 0 -- -- 75
2019-05-17 01:00:00 10.9 10 Noroeste 28 Noroeste 0 -- -- 72
2019-05-17 00:00:00 12.3 11 Noroeste 28 Noroeste 0 -- -- 67